createdAt,value
2023-04-23T00:05:30.730Z,1.73
2023-04-23T00:11:17.679Z,1.77
2023-04-23T00:17:04.284Z,1.63
2023-04-23T00:22:51.232Z,1.20
2023-04-23T00:28:37.985Z,1.65
2023-04-23T00:34:24.856Z,0.95
2023-04-23T00:40:12.411Z,1.30
2023-04-23T00:46:02.824Z,1.40
2023-04-23T00:51:49.501Z,1.15
2023-04-23T00:57:37.487Z,1.17
2023-04-23T01:03:29.872Z,1.10
2023-04-23T01:15:09.202Z,0.90
2023-04-23T01:20:57.359Z,1.58
2023-04-23T01:26:47.580Z,1.23
2023-04-23T01:32:35.520Z,0.80
2023-04-23T01:38:25.121Z,0.43
2023-04-23T01:44:12.409Z,0.40
2023-04-23T01:49:59.799Z,0.30
2023-04-23T01:55:48.767Z,0.50
2023-04-23T02:01:44.636Z,0.57
2023-04-23T02:07:32.810Z,0.75
2023-04-23T02:13:19.570Z,1.20
2023-04-23T02:19:07.050Z,0.88
2023-04-23T02:24:54.231Z,1.50
2023-04-23T02:30:45.969Z,0.80
2023-04-23T02:36:35.104Z,1.10
2023-04-23T02:42:24.384Z,2.63
2023-04-23T02:48:11.707Z,1.00
2023-04-23T02:53:58.845Z,0.95
2023-04-23T02:59:46.374Z,1.02
2023-04-23T03:05:36.058Z,1.17
2023-04-23T03:11:23.087Z,1.00
2023-04-23T03:17:10.251Z,1.42
2023-04-23T03:23:00.020Z,1.52
2023-04-23T03:28:57.943Z,1.08
2023-04-23T03:34:44.781Z,1.15
2023-04-23T03:40:31.789Z,1.33
2023-04-23T03:46:22.701Z,1.08
2023-04-23T03:52:09.598Z,1.10
2023-04-23T03:58:03.098Z,1.33
2023-04-23T04:09:51.579Z,0.90
2023-04-23T04:15:38.431Z,1.00
2023-04-23T04:21:25.099Z,0.80
2023-04-23T04:27:13.407Z,1.00
2023-04-23T04:33:01.568Z,1.40
2023-04-23T04:38:48.496Z,1.10
2023-04-23T04:44:37.641Z,1.40
2023-04-23T04:50:24.761Z,1.40
2023-04-23T04:56:14.162Z,1.67
2023-04-23T05:02:01.348Z,1.40
2023-04-23T05:07:54.386Z,1.63
2023-04-23T05:13:41.414Z,1.52
2023-04-23T05:19:32.578Z,0.95
2023-04-23T05:25:21.841Z,1.52
2023-04-23T05:31:09.120Z,0.75
2023-04-23T05:36:55.797Z,1.23
2023-04-23T05:42:43.492Z,0.98
2023-04-23T05:48:30.485Z,1.17
2023-04-23T05:54:19.575Z,0.88
2023-04-23T06:00:09.933Z,0.82
2023-04-23T06:05:59.556Z,1.20
2023-04-23T06:11:46.625Z,1.15
2023-04-23T06:17:34.969Z,1.90
2023-04-23T06:23:24.668Z,0.90
2023-04-23T06:29:11.916Z,1.00
2023-04-23T06:35:09.848Z,1.15
2023-04-23T06:41:02.298Z,1.75
2023-04-23T06:52:36.323Z,0.93
2023-04-23T06:58:27.462Z,1.67
2023-04-23T07:04:14.522Z,3.85
2023-04-23T07:10:01.905Z,1.50
2023-04-23T07:15:51.243Z,0.95
2023-04-23T07:21:37.977Z,1.45
2023-04-23T07:27:25.183Z,0.90
2023-04-23T07:33:12.518Z,2.53
2023-04-23T07:38:59.316Z,2.70
2023-04-23T07:44:46.371Z,0.88
2023-04-23T07:50:33.362Z,0.93
2023-04-23T07:56:24.692Z,1.10
2023-04-23T08:02:16.744Z,2.85
2023-04-23T08:13:53.071Z,0.80
2023-04-23T08:19:44.201Z,0.75
2023-04-23T08:25:32.789Z,0.80
2023-04-23T08:31:26.471Z,0.73
2023-04-23T08:37:27.127Z,1.20
2023-04-23T08:43:21.328Z,0.70
2023-04-23T09:05:30.048Z,0.82
2023-04-23T09:11:33.771Z,0.47
2023-04-23T09:18:01.256Z,0.93
2023-04-23T09:39:40.321Z,1.00
2023-04-23T09:45:38.285Z,0.70
2023-04-23T09:51:28.662Z,0.77
2023-04-23T09:58:49.088Z,0.73
2023-04-23T10:04:40.932Z,1.17
2023-04-23T10:10:27.899Z,0.80
2023-04-23T10:16:22.528Z,0.88
2023-04-23T10:22:19.097Z,1.00
2023-04-23T10:28:09.303Z,0.70
2023-04-23T10:34:13.304Z,1.00
2023-04-23T10:40:14.221Z,0.80
2023-04-23T10:46:01.660Z,0.93
2023-04-23T10:58:01.611Z,1.15
2023-04-23T11:03:52.787Z,1.08
2023-04-23T11:09:48.690Z,0.63
2023-04-23T11:15:40.562Z,0.60
2023-04-23T11:22:31.377Z,0.70
2023-04-23T11:28:31.665Z,0.90
2023-04-23T11:34:20.193Z,0.73
2023-04-23T11:40:11.291Z,0.90
2023-04-23T11:46:15.939Z,0.90
2023-04-23T11:52:07.158Z,0.70
2023-04-23T11:57:59.295Z,0.90
2023-04-23T12:03:49.745Z,0.90
2023-04-23T12:09:40.522Z,0.65
2023-04-23T12:15:30.976Z,0.90
2023-04-23T12:21:24.692Z,0.80
2023-04-23T12:27:16.232Z,0.90
2023-04-23T12:33:04.586Z,0.95
2023-04-23T12:38:51.869Z,1.00
2023-04-23T12:44:39.188Z,1.00
2023-04-23T12:50:26.077Z,0.77
2023-04-23T12:56:16.188Z,0.85
2023-04-23T13:02:16.181Z,0.57
2023-04-23T13:08:03.840Z,0.30
2023-04-23T13:13:54.883Z,0.70
2023-04-23T13:19:44.901Z,0.50
2023-04-23T13:25:31.995Z,0.98
2023-04-23T13:31:19.931Z,0.90
2023-04-23T13:37:09.590Z,1.15
2023-04-23T13:43:16.944Z,1.33
2023-04-23T13:49:06.925Z,1.60
2023-04-23T14:01:47.361Z,1.00
2023-04-23T14:07:36.828Z,1.85
2023-04-23T14:13:25.084Z,1.65
2023-04-23T14:19:15.303Z,1.27
2023-04-23T14:25:10.548Z,1.58
2023-04-23T14:31:01.390Z,2.05
2023-04-23T14:36:49.620Z,1.45
2023-04-23T14:42:42.322Z,2.42
2023-04-23T14:48:31.284Z,1.90
2023-04-23T14:54:18.885Z,1.90
2023-04-23T15:00:11.961Z,2.03
2023-04-23T15:06:01.841Z,2.10
2023-04-23T15:11:53.633Z,3.13
2023-04-23T15:17:40.928Z,2.38
2023-04-23T15:23:27.890Z,2.85
2023-04-23T15:29:16.077Z,2.45
2023-04-23T15:35:03.151Z,2.45
2023-04-23T15:40:50.229Z,2.63
2023-04-23T15:46:37.060Z,2.72
2023-04-23T15:52:24.749Z,2.33
2023-04-23T15:58:14.123Z,2.58
2023-04-23T16:09:54.096Z,2.38
2023-04-23T16:15:43.101Z,3.20
2023-04-23T16:21:32.279Z,2.50
2023-04-23T16:27:19.338Z,2.13
2023-04-23T16:33:06.627Z,2.42
2023-04-23T16:38:53.808Z,4.50
2023-04-23T16:44:41.136Z,5.22
2023-04-23T16:50:28.337Z,2.78
2023-04-23T16:56:17.003Z,1.92
2023-04-23T17:02:06.055Z,1.60
2023-04-23T17:07:57.329Z,1.92
2023-04-23T17:13:44.127Z,1.75
2023-04-23T17:19:31.016Z,1.63
2023-04-23T17:25:18.109Z,1.70
2023-04-23T17:31:04.933Z,2.25
2023-04-23T17:36:51.740Z,1.52
2023-04-23T17:42:38.781Z,1.90
2023-04-23T17:48:26.050Z,2.67
2023-04-23T17:54:12.894Z,2.42
2023-04-23T18:00:02.065Z,2.80
2023-04-23T18:05:58.724Z,2.30
2023-04-23T18:11:45.520Z,2.53
2023-04-23T18:17:32.338Z,2.63
2023-04-23T18:23:21.933Z,2.33
2023-04-23T18:29:12.855Z,2.72
2023-04-23T18:34:59.889Z,2.42
2023-04-23T18:40:46.767Z,3.08
2023-04-23T18:46:33.641Z,2.95
2023-04-23T18:52:23.994Z,2.17
2023-04-23T18:58:10.850Z,2.20
2023-04-23T19:03:57.954Z,1.88
2023-04-23T19:09:45.073Z,1.80
2023-04-23T19:15:32.445Z,1.80
2023-04-23T19:21:19.578Z,1.80
2023-04-23T19:27:07.239Z,1.95
2023-04-23T19:32:54.656Z,22.40
2023-04-23T19:38:42.814Z,3.28
2023-04-23T19:44:30.340Z,2.13
2023-04-23T19:50:27.215Z,4.70
2023-04-23T19:56:36.274Z,1.40
2023-04-23T20:02:24.342Z,2.10
2023-04-23T20:08:26.063Z,1.98
2023-04-23T20:15:41.191Z,2.65
2023-04-23T20:21:29.168Z,2.13
2023-04-23T20:27:16.747Z,2.50
2023-04-23T20:33:03.788Z,2.95
2023-04-23T20:39:14.219Z,3.10
2023-04-23T20:45:12.955Z,3.35
2023-04-23T20:57:28.813Z,4.20
2023-04-23T21:03:16.090Z,4.63
2023-04-23T21:09:37.270Z,5.07
2023-04-23T21:15:26.696Z,5.78
2023-04-23T21:21:46.487Z,5.50
2023-04-23T21:34:50.818Z,5.60
2023-04-23T21:40:38.355Z,7.20
2023-04-23T21:46:27.433Z,6.38
2023-04-23T21:52:14.511Z,7.45
2023-04-23T22:03:59.007Z,8.35
2023-04-23T22:09:45.932Z,8.18
2023-04-23T22:15:32.696Z,10.23
2023-04-23T22:21:20.768Z,9.43
2023-04-23T22:27:07.573Z,10.05
2023-04-23T22:33:00.595Z,9.40
2023-04-23T22:39:52.644Z,10.07
2023-04-23T22:45:42.106Z,10.63
2023-04-23T22:51:33.609Z,9.75
2023-04-23T22:57:24.113Z,9.55
2023-04-23T23:03:10.898Z,10.27
2023-04-23T23:08:58.090Z,10.40
2023-04-23T23:14:44.816Z,10.68
2023-04-23T23:20:31.732Z,10.43
2023-04-23T23:26:18.818Z,10.90
2023-04-23T23:32:05.830Z,11.70
2023-04-23T23:37:52.854Z,10.63
2023-04-23T23:43:39.715Z,10.75
2023-04-23T23:49:29.297Z,10.85
2023-04-23T23:55:16.849Z,10.63
